Current Weather



TAF Data Links

METAR Data Links

Latest METAR/TAF Data


Available data for KAUS from the past 2 hours
AUSTIN, TX
Metar
KAUS 280653Z 18011G20KT 9SM OVC019 22/18 A2961 RMK AO2 SLP018 T02220183

06:53 UTC

Wind: 180° 11kt

Visibility: 9 SM

Sky: OVC 1900 ft

Temp: 22 deg C / 71.6 deg F

Dewpoint: 18 deg C / 64.4 deg F

Pressure: 29.61 inHg

TAF
KAUS 280644Z 2807/2912 18015KT P6SM OVC017 FM281500 18012KT P6SM BKN022 FM281700 17015KT P6SM SCT050 FM290400 17012KT P6SM BKN012


Available data for KEDC from the past 2 hours
AUSTIN EXEC, TX
Metar
KEDC 280715Z AUTO 18009G14KT 10SM OVC020 21/18 A2962 RMK AO2

07:15 UTC

Wind: 180° 9kt

Visibility: 10 SM

Sky: OVC 2000 ft

Temp: 21 deg C / 69.8 deg F

Dewpoint: 18 deg C / 64.4 deg F

Pressure: 29.62 inHg



Available data for KRYW from the past 2 hours
LAGO VISTA, TX
Metar
KRYW 280715Z AUTO 18013G22KT 10SM OVC013 20/17 A2963 RMK AO2 T02030173

07:15 UTC

Wind: 180° 13kt

Visibility: 10 SM

Sky: OVC 1300 ft

Temp: 20 deg C / 68 deg F

Dewpoint: 17 deg C / 62.6 deg F

Pressure: 29.63 inHg